createdAt,value
2023-02-18T00:00:30.169Z,15.48
2023-02-18T00:02:56.938Z,13.23
2023-02-18T00:05:23.820Z,22.02
2023-02-18T00:07:50.589Z,19.83
2023-02-18T00:10:17.555Z,17.15
2023-02-18T00:12:44.368Z,22.08
2023-02-18T00:15:11.622Z,19.80
2023-02-18T00:17:38.642Z,19.38
2023-02-18T00:20:06.893Z,17.85
2023-02-18T00:22:33.886Z,17.77
2023-02-18T00:25:00.647Z,17.08
2023-02-18T00:27:27.430Z,16.17
2023-02-18T00:29:54.473Z,25.20
2023-02-18T00:32:22.270Z,14.88
2023-02-18T00:34:49.149Z,18.10
2023-02-18T00:37:16.043Z,17.67
2023-02-18T00:39:44.108Z,18.88
2023-02-18T00:42:10.928Z,18.48
2023-02-18T00:44:37.687Z,13.65
2023-02-18T00:47:04.591Z,16.17
2023-02-18T00:49:31.552Z,11.77
2023-02-18T00:51:58.443Z,13.95
2023-02-18T00:54:25.159Z,13.25
2023-02-18T00:56:52.166Z,14.13
2023-02-18T00:59:18.990Z,13.05
2023-02-18T01:01:45.799Z,12.68
2023-02-18T01:04:12.951Z,12.90
2023-02-18T01:06:40.152Z,10.88
2023-02-18T01:09:07.372Z,9.35
2023-02-18T01:11:34.267Z,9.40
2023-02-18T01:14:01.165Z,12.00
2023-02-18T01:16:30.218Z,11.73
2023-02-18T01:18:57.066Z,10.55
2023-02-18T01:21:25.932Z,10.07
2023-02-18T01:23:53.108Z,8.57
2023-02-18T01:26:19.909Z,12.73
2023-02-18T01:28:46.744Z,12.38
2023-02-18T01:31:14.854Z,11.05
2023-02-18T01:33:42.188Z,10.55
2023-02-18T01:36:10.757Z,13.25
2023-02-18T01:38:37.989Z,19.45
2023-02-18T01:41:05.330Z,12.07
2023-02-18T01:43:32.430Z,13.05
2023-02-18T01:46:05.264Z,12.38
2023-02-18T01:48:59.547Z,11.03
2023-02-18T01:54:25.643Z,7.95
2023-02-18T01:57:16.570Z,9.90
2023-02-18T01:59:48.855Z,6.57
2023-02-18T02:02:20.381Z,10.13
2023-02-18T02:04:48.236Z,9.50
2023-02-18T02:07:17.458Z,8.90
2023-02-18T02:09:44.944Z,5.88
2023-02-18T02:12:14.843Z,8.40
2023-02-18T02:15:06.176Z,10.68
2023-02-18T02:17:57.862Z,6.75
2023-02-18T02:20:44.936Z,9.20
2023-02-18T02:23:42.133Z,6.78
2023-02-18T02:26:21.436Z,7.60
2023-02-18T02:28:54.091Z,7.13
2023-02-18T02:31:29.750Z,6.40
2023-02-18T02:34:05.690Z,8.27
2023-02-18T02:36:47.768Z,10.35
2023-02-18T02:39:45.318Z,5.22
2023-02-18T02:42:12.140Z,6.65
2023-02-18T02:44:54.275Z,3.92
2023-02-18T02:47:38.383Z,7.05
2023-02-18T02:50:19.853Z,6.03
2023-02-18T02:52:54.978Z,5.97
2023-02-18T02:55:21.887Z,4.65
2023-02-18T02:57:53.888Z,6.82
2023-02-18T03:00:40.024Z,4.25
2023-02-18T03:03:44.868Z,4.20
2023-02-18T03:06:31.715Z,6.18
2023-02-18T03:09:24.628Z,5.72
2023-02-18T03:12:29.419Z,4.32
2023-02-18T03:15:03.727Z,5.10
2023-02-18T03:17:43.862Z,6.05
2023-02-18T03:20:16.607Z,4.53
2023-02-18T03:22:49.191Z,4.47
2023-02-18T03:25:18.209Z,3.13
2023-02-18T03:27:54.367Z,5.63
2023-02-18T03:30:39.363Z,2.97
2023-02-18T03:33:09.557Z,2.78
2023-02-18T03:35:38.793Z,2.95
2023-02-18T03:38:21.797Z,3.45
2023-02-18T03:40:49.298Z,2.67
2023-02-18T03:43:16.717Z,4.53
2023-02-18T03:45:43.912Z,3.70
2023-02-18T03:48:10.845Z,2.17
2023-02-18T03:50:37.598Z,5.20
2023-02-18T03:53:06.120Z,3.30
2023-02-18T03:55:32.984Z,2.25
2023-02-18T03:57:59.763Z,2.13
2023-02-18T04:00:26.550Z,1.42
2023-02-18T04:02:53.228Z,2.13
2023-02-18T04:05:19.941Z,2.05
2023-02-18T04:07:46.738Z,2.05
2023-02-18T04:10:13.451Z,1.70
2023-02-18T04:12:40.408Z,1.30
2023-02-18T04:15:07.451Z,3.40
2023-02-18T04:17:34.535Z,2.30
2023-02-18T04:20:01.702Z,3.15
2023-02-18T04:22:28.458Z,2.10
2023-02-18T04:24:55.250Z,1.90
2023-02-18T04:27:22.011Z,2.25
2023-02-18T04:29:49.026Z,1.77
2023-02-18T04:32:15.949Z,2.03
2023-02-18T04:34:42.810Z,3.17
2023-02-18T04:37:09.571Z,2.50
2023-02-18T04:39:36.428Z,3.33
2023-02-18T04:42:08.712Z,1.98
2023-02-18T04:44:36.631Z,0.98
2023-02-18T04:47:04.802Z,1.05
2023-02-18T04:49:31.709Z,1.13
2023-02-18T04:51:58.365Z,1.63
2023-02-18T04:54:25.728Z,5.68
2023-02-18T04:56:52.542Z,1.58
2023-02-18T04:59:21.455Z,1.92
2023-02-18T05:01:48.269Z,5.82
2023-02-18T05:04:14.979Z,1.55
2023-02-18T05:06:43.040Z,2.95
2023-02-18T05:09:10.537Z,2.13
2023-02-18T05:11:37.664Z,2.45
2023-02-18T05:14:05.187Z,1.63
2023-02-18T05:16:32.076Z,1.30
2023-02-18T05:18:59.031Z,1.65
2023-02-18T05:21:25.923Z,1.42
2023-02-18T05:23:52.717Z,1.42
2023-02-18T05:26:19.656Z,1.70
2023-02-18T05:28:46.656Z,2.17
2023-02-18T05:31:13.504Z,1.75
2023-02-18T05:33:40.226Z,5.93
2023-02-18T05:36:08.456Z,2.20
2023-02-18T05:38:35.310Z,1.77
2023-02-18T05:41:02.042Z,1.75
2023-02-18T05:43:28.770Z,2.17
2023-02-18T05:45:55.571Z,1.85
2023-02-18T05:48:22.258Z,2.28
2023-02-18T05:50:49.093Z,4.63
2023-02-18T05:53:17.633Z,7.57
2023-02-18T05:55:44.467Z,2.70
2023-02-18T05:58:11.272Z,1.90
2023-02-18T06:00:38.034Z,2.40
2023-02-18T06:03:04.830Z,1.58
2023-02-18T06:05:31.621Z,2.13
2023-02-18T06:07:58.347Z,3.05
2023-02-18T06:10:25.484Z,7.03
2023-02-18T06:12:53.304Z,3.47
2023-02-18T06:15:20.204Z,3.13
2023-02-18T06:17:47.014Z,3.50
2023-02-18T06:20:13.833Z,3.88
2023-02-18T06:22:40.582Z,3.78
2023-02-18T06:25:07.537Z,6.32
2023-02-18T06:27:34.360Z,3.20
2023-02-18T06:30:01.185Z,1.17
2023-02-18T06:32:28.167Z,8.65
2023-02-18T06:34:55.024Z,3.50
2023-02-18T06:37:21.802Z,6.00
2023-02-18T06:39:48.552Z,0.73
2023-02-18T06:42:15.304Z,5.22
2023-02-18T06:44:42.071Z,4.00
2023-02-18T06:47:08.968Z,4.32
2023-02-18T06:49:36.450Z,12.00
2023-02-18T06:52:03.388Z,6.65
2023-02-18T06:54:30.121Z,3.13
2023-02-18T06:56:57.127Z,5.18
2023-02-18T06:59:23.994Z,8.65
2023-02-18T07:01:51.180Z,5.53
2023-02-18T07:04:17.991Z,9.15
2023-02-18T07:06:44.743Z,1.08
2023-02-18T07:09:11.610Z,3.10
2023-02-18T07:11:38.440Z,4.35
2023-02-18T07:14:07.383Z,6.50
2023-02-18T07:16:35.115Z,1.65
2023-02-18T07:19:01.942Z,2.22
2023-02-18T07:21:29.131Z,2.42
2023-02-18T07:23:56.217Z,2.30
2023-02-18T07:26:23.489Z,4.05
2023-02-18T07:28:50.320Z,2.63
2023-02-18T07:31:17.717Z,11.13
2023-02-18T07:33:44.576Z,6.75
2023-02-18T07:36:11.653Z,8.77
2023-02-18T07:38:38.389Z,8.30
2023-02-18T07:41:05.235Z,2.03
2023-02-18T07:43:32.360Z,1.33
2023-02-18T07:45:59.133Z,5.70
2023-02-18T07:48:25.816Z,10.70
2023-02-18T07:50:52.724Z,7.30
2023-02-18T07:53:19.423Z,2.55
2023-02-18T07:55:49.107Z,15.40
2023-02-18T07:58:20.605Z,11.40
2023-02-18T08:00:49.454Z,6.68
2023-02-18T08:03:18.654Z,2.60
2023-02-18T08:05:45.472Z,2.55
2023-02-18T08:08:14.694Z,2.13
2023-02-18T08:10:41.960Z,2.78
2023-02-18T08:13:09.369Z,1.67
2023-02-18T08:15:37.584Z,0.88
2023-02-18T08:18:05.112Z,2.05
2023-02-18T08:20:31.954Z,0.63
2023-02-18T08:22:58.651Z,6.50
2023-02-18T08:25:29.613Z,11.40
2023-02-18T08:27:56.911Z,11.00
2023-02-18T08:30:23.780Z,6.40
2023-02-18T08:32:50.585Z,5.93
2023-02-18T08:35:17.426Z,1.70
2023-02-18T08:37:53.082Z,2.83
2023-02-18T08:40:22.026Z,3.13
2023-02-18T08:42:48.771Z,6.60
2023-02-18T08:45:15.539Z,3.15
2023-02-18T08:48:16.258Z,4.07
2023-02-18T08:50:29.103Z,7.30
2023-02-18T08:52:57.132Z,8.07
2023-02-18T08:55:24.961Z,10.73
2023-02-18T08:57:51.697Z,2.17
2023-02-18T09:00:19.191Z,6.50
2023-02-18T09:02:47.378Z,4.30
2023-02-18T09:05:14.607Z,6.25
2023-02-18T09:07:41.439Z,6.35
2023-02-18T09:10:09.320Z,3.72
2023-02-18T09:12:36.554Z,1.85
2023-02-18T09:15:05.856Z,6.47
2023-02-18T09:17:33.253Z,1.30
2023-02-18T09:20:00.117Z,3.17
2023-02-18T09:22:26.875Z,1.65
2023-02-18T09:24:53.689Z,2.88
2023-02-18T09:27:21.272Z,1.45
2023-02-18T09:29:49.566Z,1.55
2023-02-18T09:32:28.789Z,6.13
2023-02-18T09:34:59.349Z,2.57
2023-02-18T09:37:26.124Z,6.18
2023-02-18T09:39:52.842Z,2.17
2023-02-18T09:42:28.004Z,0.70
2023-02-18T09:44:57.764Z,2.63
2023-02-18T09:47:33.027Z,2.13
2023-02-18T09:50:06.824Z,2.17
2023-02-18T09:52:38.185Z,17.73
2023-02-18T09:55:32.735Z,2.63
2023-02-18T09:58:12.172Z,6.97
2023-02-18T10:00:46.107Z,4.93
2023-02-18T10:03:31.470Z,0.85
2023-02-18T10:06:01.134Z,1.85
2023-02-18T10:08:31.298Z,2.88
2023-02-18T10:10:58.099Z,3.17
2023-02-18T10:13:30.910Z,2.22
2023-02-18T10:15:57.893Z,2.47
2023-02-18T10:18:40.045Z,10.15
2023-02-18T10:21:14.325Z,11.15
2023-02-18T10:23:57.857Z,6.93
2023-02-18T10:26:24.915Z,3.78
2023-02-18T10:28:52.860Z,6.20
2023-02-18T10:31:25.894Z,2.95
2023-02-18T10:34:04.937Z,5.60
2023-02-18T10:36:44.622Z,2.80
2023-02-18T10:39:22.172Z,5.72
2023-02-18T10:42:25.108Z,7.63
2023-02-18T10:45:03.669Z,5.88
2023-02-18T10:47:38.162Z,9.35
2023-02-18T10:50:30.404Z,7.63
2023-02-18T10:53:21.456Z,5.45
2023-02-18T10:55:54.345Z,1.85
2023-02-18T10:58:28.420Z,3.60
2023-02-18T11:00:55.547Z,10.07
2023-02-18T11:03:25.508Z,5.13
2023-02-18T11:05:55.948Z,5.80
2023-02-18T11:08:28.884Z,2.92
2023-02-18T11:10:57.308Z,6.50
2023-02-18T11:13:31.654Z,6.07
2023-02-18T11:16:01.616Z,9.55
2023-02-18T11:18:40.978Z,1.88
2023-02-18T11:21:29.283Z,7.97
2023-02-18T11:23:57.383Z,6.10
2023-02-18T11:26:31.157Z,5.97
2023-02-18T11:29:05.991Z,13.02
2023-02-18T11:31:42.071Z,3.33
2023-02-18T11:34:18.215Z,3.67
2023-02-18T11:36:45.919Z,7.40
2023-02-18T11:39:26.391Z,6.53
2023-02-18T11:42:05.444Z,4.30
2023-02-18T11:44:36.248Z,4.20
2023-02-18T11:47:05.882Z,2.13
2023-02-18T11:49:35.014Z,5.65
2023-02-18T11:52:20.164Z,10.88
2023-02-18T11:55:06.584Z,8.48
2023-02-18T11:57:39.908Z,3.60
2023-02-18T12:00:23.311Z,8.48
2023-02-18T12:02:53.746Z,5.90
2023-02-18T12:05:26.217Z,6.45
2023-02-18T12:08:01.307Z,7.05
2023-02-18T12:10:32.904Z,5.25
2023-02-18T12:13:06.063Z,13.30
2023-02-18T12:15:47.741Z,6.32
2023-02-18T12:18:20.737Z,8.60
2023-02-18T12:21:06.951Z,10.25
2023-02-18T12:23:39.774Z,7.72
2023-02-18T12:26:22.870Z,6.85
2023-02-18T12:28:52.571Z,5.20
2023-02-18T12:31:44.292Z,6.30
2023-02-18T12:34:39.122Z,9.30
2023-02-18T12:37:34.232Z,5.95
2023-02-18T12:40:27.128Z,8.38
2023-02-18T12:43:12.242Z,13.90
2023-02-18T12:45:45.112Z,11.50
2023-02-18T12:48:38.305Z,6.20
2023-02-18T12:51:30.529Z,13.02
2023-02-18T12:54:25.267Z,4.75
2023-02-18T12:57:26.889Z,6.13
2023-02-18T12:59:56.653Z,4.28
2023-02-18T13:02:37.715Z,2.55
2023-02-18T13:05:27.379Z,6.47
2023-02-18T13:08:28.640Z,5.80
2023-02-18T13:11:15.070Z,10.82
2023-02-18T13:14:10.829Z,2.78
2023-02-18T13:16:43.405Z,10.77
2023-02-18T13:19:43.088Z,4.90
2023-02-18T13:22:12.503Z,6.25
2023-02-18T13:24:43.283Z,8.63
2023-02-18T13:27:47.750Z,10.15
2023-02-18T13:33:20.758Z,2.65
2023-02-18T13:36:24.996Z,4.35
2023-02-18T13:38:58.741Z,3.10
2023-02-18T13:41:27.238Z,7.78
2023-02-18T13:43:54.358Z,4.80
2023-02-18T13:46:23.168Z,7.07
2023-02-18T13:49:06.828Z,4.85
2023-02-18T13:51:44.620Z,9.80
2023-02-18T13:54:17.101Z,9.45
2023-02-18T13:56:45.443Z,6.07
2023-02-18T13:59:20.200Z,2.88
2023-02-18T14:01:49.511Z,9.98
2023-02-18T14:04:42.101Z,7.32
2023-02-18T14:07:39.299Z,2.88
2023-02-18T14:10:26.682Z,3.92
2023-02-18T14:12:59.154Z,3.20
2023-02-18T14:15:25.899Z,5.55
2023-02-18T14:17:58.669Z,6.70
2023-02-18T14:20:38.523Z,7.47
2023-02-18T14:23:20.762Z,6.40
2023-02-18T14:25:58.694Z,3.92
2023-02-18T14:28:35.037Z,2.28
2023-02-18T14:31:30.161Z,6.82
2023-02-18T14:34:24.627Z,12.10
2023-02-18T14:37:28.331Z,5.25
2023-02-18T14:40:17.109Z,7.47
2023-02-18T14:43:03.185Z,6.55
2023-02-18T14:45:59.136Z,6.13
2023-02-18T14:48:44.400Z,9.95
2023-02-18T14:51:16.934Z,6.75
2023-02-18T14:53:45.133Z,4.75
2023-02-18T14:56:15.952Z,2.33
2023-02-18T14:58:47.157Z,3.08
2023-02-18T15:01:19.348Z,5.07
2023-02-18T15:03:50.956Z,2.13
2023-02-18T15:06:33.058Z,5.05
2023-02-18T15:09:01.618Z,7.05
2023-02-18T15:11:42.694Z,4.10
2023-02-18T15:14:40.219Z,7.68
2023-02-18T15:17:13.482Z,2.70
2023-02-18T15:19:44.102Z,17.33
2023-02-18T15:22:19.970Z,8.45
2023-02-18T15:24:49.694Z,3.67
2023-02-18T15:27:25.960Z,4.97
2023-02-18T15:29:58.023Z,7.25
2023-02-18T15:32:30.662Z,14.70
2023-02-18T15:35:03.542Z,7.03
2023-02-18T15:37:31.302Z,5.68
2023-02-18T15:39:58.208Z,5.93
2023-02-18T15:42:35.955Z,8.85
2023-02-18T15:45:13.353Z,5.07
2023-02-18T15:47:45.665Z,4.28
2023-02-18T15:50:31.902Z,9.13
2023-02-18T15:53:07.197Z,4.43
2023-02-18T15:55:39.539Z,3.97
2023-02-18T15:58:14.742Z,2.25
2023-02-18T16:00:49.361Z,4.95
2023-02-18T16:03:25.259Z,7.47
2023-02-18T16:06:30.780Z,6.95
2023-02-18T16:09:06.630Z,8.68
2023-02-18T16:11:40.651Z,4.18
2023-02-18T16:14:10.000Z,7.70
2023-02-18T16:16:39.427Z,6.00
2023-02-18T16:19:06.287Z,5.07
2023-02-18T16:21:39.755Z,4.85
2023-02-18T16:24:40.555Z,5.68
2023-02-18T16:27:15.969Z,3.88
2023-02-18T16:29:43.807Z,4.75
2023-02-18T16:32:11.053Z,7.85
2023-02-18T16:34:38.032Z,7.40
2023-02-18T16:37:23.666Z,3.25
2023-02-18T16:39:54.760Z,4.70
2023-02-18T16:42:21.751Z,7.95
2023-02-18T16:44:49.931Z,8.00
2023-02-18T16:47:18.119Z,6.05
2023-02-18T16:49:50.745Z,6.40
2023-02-18T16:52:19.277Z,16.47
2023-02-18T16:54:48.115Z,3.25
2023-02-18T16:57:14.892Z,7.70
2023-02-18T16:59:41.638Z,10.35
2023-02-18T17:02:20.549Z,6.22
2023-02-18T17:04:47.560Z,11.35
2023-02-18T17:07:14.330Z,4.97
2023-02-18T17:09:41.125Z,6.65
2023-02-18T17:12:09.315Z,4.25
2023-02-18T17:14:36.125Z,6.68
2023-02-18T17:17:10.787Z,7.47
2023-02-18T17:19:37.552Z,2.30
2023-02-18T17:22:04.235Z,6.25
2023-02-18T17:24:30.917Z,10.00
2023-02-18T17:26:57.612Z,9.02
2023-02-18T17:29:24.454Z,3.95
2023-02-18T17:31:54.982Z,5.75
2023-02-18T17:34:26.192Z,6.55
2023-02-18T17:36:53.125Z,6.35
2023-02-18T17:39:20.938Z,8.48
2023-02-18T17:41:47.758Z,7.50
2023-02-18T17:44:23.556Z,10.77
2023-02-18T17:46:50.367Z,7.43
2023-02-18T17:49:17.252Z,9.30
2023-02-18T17:51:44.676Z,10.38
2023-02-18T17:54:17.850Z,10.50
2023-02-18T17:56:45.577Z,10.10
2023-02-18T17:59:13.974Z,7.90
2023-02-18T18:01:42.269Z,7.03
2023-02-18T18:04:17.663Z,7.07
2023-02-18T18:06:45.677Z,9.40
2023-02-18T18:09:12.488Z,5.68
2023-02-18T18:11:39.538Z,6.80
2023-02-18T18:14:06.309Z,5.82
2023-02-18T18:16:34.199Z,12.43
2023-02-18T18:19:00.863Z,8.57
2023-02-18T18:21:33.050Z,11.65
2023-02-18T18:24:00.000Z,6.57
2023-02-18T18:26:27.061Z,12.43
2023-02-18T18:28:53.882Z,4.68
2023-02-18T18:31:21.258Z,11.82
2023-02-18T18:33:51.574Z,7.97
2023-02-18T18:36:19.812Z,11.32
2023-02-18T18:38:47.025Z,10.38
2023-02-18T18:41:17.195Z,11.13
2023-02-18T18:43:44.522Z,6.38
2023-02-18T18:46:11.362Z,6.47
2023-02-18T18:48:39.572Z,7.93
2023-02-18T18:51:06.655Z,8.02
2023-02-18T18:53:34.780Z,10.02
2023-02-18T18:56:05.564Z,6.57
2023-02-18T18:58:33.078Z,7.50
2023-02-18T19:01:02.012Z,11.13
2023-02-18T19:03:30.460Z,5.03
2023-02-18T19:05:57.871Z,15.40
2023-02-18T19:08:25.051Z,12.77
2023-02-18T19:10:56.988Z,9.05
2023-02-18T19:13:29.248Z,9.45
2023-02-18T19:16:14.155Z,12.75
2023-02-18T19:18:40.922Z,10.68
2023-02-18T19:21:07.896Z,10.30
2023-02-18T19:23:36.353Z,9.05
2023-02-18T19:26:03.762Z,9.43
2023-02-18T19:28:30.923Z,11.07
2023-02-18T19:30:57.774Z,8.27
2023-02-18T19:33:25.588Z,13.02
2023-02-18T19:35:52.393Z,11.60
2023-02-18T19:38:19.569Z,10.00
2023-02-18T19:40:47.699Z,11.05
2023-02-18T19:43:14.912Z,10.43
2023-02-18T19:45:46.863Z,11.55
2023-02-18T19:48:15.068Z,11.27
2023-02-18T19:50:43.415Z,8.40
2023-02-18T19:53:10.760Z,12.60
2023-02-18T19:55:37.565Z,9.68
2023-02-18T19:58:04.530Z,7.30
2023-02-18T20:00:31.449Z,10.02
2023-02-18T20:02:58.392Z,9.38
2023-02-18T20:05:25.572Z,8.18
2023-02-18T20:07:53.401Z,11.13
2023-02-18T20:10:20.417Z,8.82
2023-02-18T20:12:52.378Z,17.35
2023-02-18T20:15:19.999Z,9.68
2023-02-18T20:17:46.749Z,10.98
2023-02-18T20:20:13.840Z,8.77
2023-02-18T20:22:40.802Z,11.18
2023-02-18T20:25:07.735Z,10.73
2023-02-18T20:27:37.584Z,9.80
2023-02-18T20:30:08.117Z,10.13
2023-02-18T20:32:35.606Z,9.05
2023-02-18T20:35:03.235Z,13.65
2023-02-18T20:37:30.529Z,6.43
2023-02-18T20:39:57.301Z,9.32
2023-02-18T20:42:24.065Z,8.00
2023-02-18T20:44:51.693Z,12.13
2023-02-18T20:47:18.588Z,8.48
2023-02-18T20:49:46.940Z,6.60
2023-02-18T20:52:14.788Z,12.43
2023-02-18T20:54:41.522Z,8.52
2023-02-18T20:57:10.152Z,12.55
2023-02-18T20:59:37.167Z,10.15
2023-02-18T21:02:04.013Z,8.63
2023-02-18T21:04:30.920Z,15.23
2023-02-18T21:06:57.732Z,9.23
2023-02-18T21:09:27.887Z,6.50
2023-02-18T21:11:54.635Z,8.10
2023-02-18T21:14:21.508Z,11.20
2023-02-18T21:16:48.629Z,13.80
2023-02-18T21:19:17.342Z,9.65
2023-02-18T21:21:46.713Z,7.05
2023-02-18T21:24:13.738Z,16.20
2023-02-18T21:26:40.747Z,6.72
2023-02-18T21:29:08.391Z,11.55
2023-02-18T21:31:36.629Z,10.95
2023-02-18T21:34:04.998Z,11.85
2023-02-18T21:36:33.777Z,16.83
2023-02-18T21:39:05.697Z,6.50
2023-02-18T21:41:34.301Z,8.32
2023-02-18T21:44:01.784Z,8.48
2023-02-18T21:46:33.530Z,7.10
2023-02-18T21:49:06.687Z,6.20
2023-02-18T21:51:59.214Z,9.48
2023-02-18T21:54:44.459Z,7.65
2023-02-18T21:57:24.852Z,8.25
2023-02-18T21:59:53.103Z,9.27
2023-02-18T22:02:23.940Z,7.85
2023-02-18T22:04:50.964Z,9.40
2023-02-18T22:07:20.009Z,7.68
2023-02-18T22:09:48.637Z,16.20
2023-02-18T22:12:16.595Z,7.95
2023-02-18T22:14:43.818Z,11.18
2023-02-18T22:17:11.096Z,6.43
2023-02-18T22:19:38.173Z,6.30
2023-02-18T22:22:05.045Z,5.15
2023-02-18T22:24:32.207Z,7.90
2023-02-18T22:27:02.200Z,12.23
2023-02-18T22:29:30.564Z,9.32
2023-02-18T22:31:59.916Z,12.10
2023-02-18T22:34:29.660Z,9.88
2023-02-18T22:36:58.478Z,7.28
2023-02-18T22:39:26.313Z,10.63
2023-02-18T22:41:53.243Z,10.82
2023-02-18T22:44:20.408Z,12.35
2023-02-18T22:46:47.291Z,13.73
2023-02-18T22:49:14.479Z,13.80
2023-02-18T22:51:43.640Z,15.23
2023-02-18T22:54:13.466Z,10.73
2023-02-18T22:56:40.465Z,10.80
2023-02-18T22:59:07.447Z,11.75
2023-02-18T23:01:36.896Z,10.75
2023-02-18T23:04:11.999Z,10.70
2023-02-18T23:06:41.621Z,14.32
2023-02-18T23:09:11.185Z,16.38
2023-02-18T23:11:37.948Z,13.77
2023-02-18T23:14:19.717Z,14.07
2023-02-18T23:17:08.208Z,16.25
2023-02-18T23:19:36.430Z,17.08
2023-02-18T23:22:03.622Z,14.13
2023-02-18T23:24:35.677Z,11.27
2023-02-18T23:27:03.532Z,19.77
2023-02-18T23:29:30.337Z,12.00
2023-02-18T23:31:57.211Z,12.27
2023-02-18T23:34:24.020Z,11.27
2023-02-18T23:36:50.837Z,13.00
2023-02-18T23:39:20.454Z,16.98
2023-02-18T23:41:47.991Z,17.83
2023-02-18T23:44:17.752Z,14.90
2023-02-18T23:46:44.747Z,13.95
2023-02-18T23:49:14.962Z,11.20
2023-02-18T23:51:42.012Z,11.18
2023-02-18T23:54:08.826Z,18.52
2023-02-18T23:56:35.588Z,16.80
2023-02-18T23:59:04.624Z,12.07
